sensor_id;sensor_type;location;lat;lon;timestamp;temperature;humidity
17381;DHT22;8808;52.478;13.378;2022-09-27T00:02:05;13.70;99.90
17381;DHT22;8808;52.478;13.378;2022-09-27T00:04:33;13.70;99.90
17381;DHT22;8808;52.478;13.378;2022-09-27T00:07:00;13.60;99.90
17381;DHT22;8808;52.478;13.378;2022-09-27T00:09:27;13.70;99.90
17381;DHT22;8808;52.478;13.378;2022-09-27T00:11:54;13.70;99.90
17381;DHT22;8808;52.478;13.378;2022-09-27T00:14:21;13.50;99.90
17381;DHT22;8808;52.478;13.378;2022-09-27T00:16:48;13.50;99.90
17381;DHT22;8808;52.478;13.378;2022-09-27T00:19:16;13.60;99.90
17381;DHT22;8808;52.478;13.378;2022-09-27T00:24:14;13.50;99.90
17381;DHT22;8808;52.478;13.378;2022-09-27T00:26:42;13.50;99.90
17381;DHT22;8808;52.478;13.378;2022-09-27T00:29:09;13.50;99.90
17381;DHT22;8808;52.478;13.378;2022-09-27T00:31:36;13.50;99.90
17381;DHT22;8808;52.478;13.378;2022-09-27T00:34:05;13.40;99.90
17381;DHT22;8808;52.478;13.378;2022-09-27T00:36:33;13.40;99.90
17381;DHT22;8808;52.478;13.378;2022-09-27T00:39:01;13.50;99.90
17381;DHT22;8808;52.478;13.378;2022-09-27T00:41:30;13.50;99.90
17381;DHT22;8808;52.478;13.378;2022-09-27T00:43:59;13.30;99.90
17381;DHT22;8808;52.478;13.378;2022-09-27T00:46:30;13.40;99.90
17381;DHT22;8808;52.478;13.378;2022-09-27T00:49:04;13.30;99.90
17381;DHT22;8808;52.478;13.378;2022-09-27T00:51:34;13.50;99.90
17381;DHT22;8808;52.478;13.378;2022-09-27T00:54:05;13.40;99.90
17381;DHT22;8808;52.478;13.378;2022-09-27T00:56:33;13.50;99.90
17381;DHT22;8808;52.478;13.378;2022-09-27T00:59:14;13.50;99.90
17381;DHT22;8808;52.478;13.378;2022-09-27T01:04:21;13.30;99.90
17381;DHT22;8808;52.478;13.378;2022-09-27T01:06:48;13.40;99.90
17381;DHT22;8808;52.478;13.378;2022-09-27T01:09:17;13.50;99.90
17381;DHT22;8808;52.478;13.378;2022-09-27T01:11:47;13.40;99.90
17381;DHT22;8808;52.478;13.378;2022-09-27T01:14:27;13.40;99.90
17381;DHT22;8808;52.478;13.378;2022-09-27T01:17:05;13.50;99.90
17381;DHT22;8808;52.478;13.378;2022-09-27T01:19:53;13.50;99.90
17381;DHT22;8808;52.478;13.378;2022-09-27T01:22:27;13.40;99.90
17381;DHT22;8808;52.478;13.378;2022-09-27T01:25:06;13.30;99.90
17381;DHT22;8808;52.478;13.378;2022-09-27T01:28:18;13.30;99.90
17381;DHT22;8808;52.478;13.378;2022-09-27T01:30:49;13.30;99.90
17381;DHT22;8808;52.478;13.378;2022-09-27T01:33:33;13.40;99.90
17381;DHT22;8808;52.478;13.378;2022-09-27T01:36:15;13.40;99.90
17381;DHT22;8808;52.478;13.378;2022-09-27T01:38:54;13.30;99.90
17381;DHT22;8808;52.478;13.378;2022-09-27T01:41:29;13.40;99.90
17381;DHT22;8808;52.478;13.378;2022-09-27T01:44:02;13.40;99.90
17381;DHT22;8808;52.478;13.378;2022-09-27T01:46:35;13.40;99.90
17381;DHT22;8808;52.478;13.378;2022-09-27T01:49:07;13.50;99.90
17381;DHT22;8808;52.478;13.378;2022-09-27T01:51:39;13.50;99.90
17381;DHT22;8808;52.478;13.378;2022-09-27T01:54:11;13.40;99.90
17381;DHT22;8808;52.478;13.378;2022-09-27T01:56:41;13.50;99.90
17381;DHT22;8808;52.478;13.378;2022-09-27T01:59:11;13.40;99.90
17381;DHT22;8808;52.478;13.378;2022-09-27T02:01:44;13.80;99.90
17381;DHT22;8808;52.478;13.378;2022-09-27T02:04:16;13.50;99.90
17381;DHT22;8808;52.478;13.378;2022-09-27T02:06:47;13.50;99.90
17381;DHT22;8808;52.478;13.378;2022-09-27T02:09:16;13.50;99.90
17381;DHT22;8808;52.478;13.378;2022-09-27T02:11:48;13.60;99.90
17381;DHT22;8808;52.478;13.378;2022-09-27T02:14:19;13.50;99.90
17381;DHT22;8808;52.478;13.378;2022-09-27T02:16:51;13.50;99.90
17381;DHT22;8808;52.478;13.378;2022-09-27T02:19:26;13.50;99.90
17381;DHT22;8808;52.478;13.378;2022-09-27T02:22:03;13.60;99.90
17381;DHT22;8808;52.478;13.378;2022-09-27T02:24:36;13.50;99.90
17381;DHT22;8808;52.478;13.378;2022-09-27T02:27:10;13.50;99.90
17381;DHT22;8808;52.478;13.378;2022-09-27T02:29:42;13.60;99.90
17381;DHT22;8808;52.478;13.378;2022-09-27T02:32:13;13.60;99.90
17381;DHT22;8808;52.478;13.378;2022-09-27T02:34:40;13.60;99.90
17381;DHT22;8808;52.478;13.378;2022-09-27T02:37:09;13.60;99.90
17381;DHT22;8808;52.478;13.378;2022-09-27T02:39:36;13.70;99.90
17381;DHT22;8808;52.478;13.378;2022-09-27T02:42:04;13.70;99.90
17381;DHT22;8808;52.478;13.378;2022-09-27T02:44:31;13.60;99.90
17381;DHT22;8808;52.478;13.378;2022-09-27T02:47:22;13.60;99.90
17381;DHT22;8808;52.478;13.378;2022-09-27T02:49:59;13.60;99.90
17381;DHT22;8808;52.478;13.378;2022-09-27T02:52:38;13.60;99.90
17381;DHT22;8808;52.478;13.378;2022-09-27T02:55:16;13.60;99.90
17381;DHT22;8808;52.478;13.378;2022-09-27T02:57:55;13.70;99.90
17381;DHT22;8808;52.478;13.378;2022-09-27T03:00:29;13.70;99.90
17381;DHT22;8808;52.478;13.378;2022-09-27T03:03:02;13.60;99.90
17381;DHT22;8808;52.478;13.378;2022-09-27T03:05:34;13.60;99.90
17381;DHT22;8808;52.478;13.378;2022-09-27T03:08:03;13.60;99.90
17381;DHT22;8808;52.478;13.378;2022-09-27T03:10:30;13.60;99.90
17381;DHT22;8808;52.478;13.378;2022-09-27T03:12:57;13.60;99.90
17381;DHT22;8808;52.478;13.378;2022-09-27T03:15:24;13.60;99.90
17381;DHT22;8808;52.478;13.378;2022-09-27T03:17:51;13.70;99.90
17381;DHT22;8808;52.478;13.378;2022-09-27T03:20:19;13.80;99.90
17381;DHT22;8808;52.478;13.378;2022-09-27T03:22:46;13.70;99.90
17381;DHT22;8808;52.478;13.378;2022-09-27T03:25:13;13.70;99.90
17381;DHT22;8808;52.478;13.378;2022-09-27T03:27:40;13.70;99.90
17381;DHT22;8808;52.478;13.378;2022-09-27T03:30:09;13.70;99.90
17381;DHT22;8808;52.478;13.378;2022-09-27T03:32:36;13.50;99.90
17381;DHT22;8808;52.478;13.378;2022-09-27T03:35:03;13.60;99.90
17381;DHT22;8808;52.478;13.378;2022-09-27T03:37:32;13.60;99.90
17381;DHT22;8808;52.478;13.378;2022-09-27T03:39:58;13.70;99.90
17381;DHT22;8808;52.478;13.378;2022-09-27T03:42:25;13.60;99.90
17381;DHT22;8808;52.478;13.378;2022-09-27T03:44:52;13.60;99.90
17381;DHT22;8808;52.478;13.378;2022-09-27T03:47:19;13.60;99.90
17381;DHT22;8808;52.478;13.378;2022-09-27T03:49:46;13.50;99.90
17381;DHT22;8808;52.478;13.378;2022-09-27T03:52:14;13.40;99.90
17381;DHT22;8808;52.478;13.378;2022-09-27T03:54:42;13.50;99.90
17381;DHT22;8808;52.478;13.378;2022-09-27T03:57:09;13.60;99.90
17381;DHT22;8808;52.478;13.378;2022-09-27T03:59:36;13.60;99.90
17381;DHT22;8808;52.478;13.378;2022-09-27T04:02:03;13.40;99.90
17381;DHT22;8808;52.478;13.378;2022-09-27T04:04:30;13.50;99.90
17381;DHT22;8808;52.478;13.378;2022-09-27T04:06:57;13.40;99.90
17381;DHT22;8808;52.478;13.378;2022-09-27T04:09:24;13.50;99.90
17381;DHT22;8808;52.478;13.378;2022-09-27T04:11:52;13.70;99.90
17381;DHT22;8808;52.478;13.378;2022-09-27T04:14:20;13.40;99.90
17381;DHT22;8808;52.478;13.378;2022-09-27T04:16:47;13.40;99.90
17381;DHT22;8808;52.478;13.378;2022-09-27T04:19:13;13.40;99.90
17381;DHT22;8808;52.478;13.378;2022-09-27T04:21:40;13.40;99.90
17381;DHT22;8808;52.478;13.378;2022-09-27T04:24:07;13.40;99.90
17381;DHT22;8808;52.478;13.378;2022-09-27T04:26:36;13.30;99.90
17381;DHT22;8808;52.478;13.378;2022-09-27T04:29:05;13.20;99.90
17381;DHT22;8808;52.478;13.378;2022-09-27T04:31:34;13.30;99.90
17381;DHT22;8808;52.478;13.378;2022-09-27T04:34:02;13.40;99.90
17381;DHT22;8808;52.478;13.378;2022-09-27T04:36:30;13.30;99.90
17381;DHT22;8808;52.478;13.378;2022-09-27T04:38:58;13.40;99.90
17381;DHT22;8808;52.478;13.378;2022-09-27T04:41:26;13.30;99.90
17381;DHT22;8808;52.478;13.378;2022-09-27T04:43:54;13.20;99.90
17381;DHT22;8808;52.478;13.378;2022-09-27T04:46:22;13.00;99.90
17381;DHT22;8808;52.478;13.378;2022-09-27T04:48:49;12.90;99.90
17381;DHT22;8808;52.478;13.378;2022-09-27T04:51:18;12.90;99.90
17381;DHT22;8808;52.478;13.378;2022-09-27T04:53:45;12.90;99.90
17381;DHT22;8808;52.478;13.378;2022-09-27T04:56:13;12.90;99.90
17381;DHT22;8808;52.478;13.378;2022-09-27T04:58:41;12.90;99.90
17381;DHT22;8808;52.478;13.378;2022-09-27T05:01:08;12.90;99.90
17381;DHT22;8808;52.478;13.378;2022-09-27T05:03:36;12.80;99.90
17381;DHT22;8808;52.478;13.378;2022-09-27T05:06:03;12.80;99.90
17381;DHT22;8808;52.478;13.378;2022-09-27T05:08:30;12.80;99.90
17381;DHT22;8808;52.478;13.378;2022-09-27T05:10:57;12.80;99.90
17381;DHT22;8808;52.478;13.378;2022-09-27T05:13:25;12.80;99.90
17381;DHT22;8808;52.478;13.378;2022-09-27T05:15:52;12.80;99.90
17381;DHT22;8808;52.478;13.378;2022-09-27T05:18:19;12.80;99.90
17381;DHT22;8808;52.478;13.378;2022-09-27T05:20:48;12.70;99.90
17381;DHT22;8808;52.478;13.378;2022-09-27T05:23:14;12.80;99.90
17381;DHT22;8808;52.478;13.378;2022-09-27T05:25:41;12.80;99.90
17381;DHT22;8808;52.478;13.378;2022-09-27T05:28:08;12.70;99.90
17381;DHT22;8808;52.478;13.378;2022-09-27T05:30:35;12.60;99.90
17381;DHT22;8808;52.478;13.378;2022-09-27T05:33:02;12.60;99.90
17381;DHT22;8808;52.478;13.378;2022-09-27T05:35:29;12.60;99.90
17381;DHT22;8808;52.478;13.378;2022-09-27T05:38:00;12.50;99.90
17381;DHT22;8808;52.478;13.378;2022-09-27T05:40:27;12.50;99.90
17381;DHT22;8808;52.478;13.378;2022-09-27T05:42:55;12.60;99.90
17381;DHT22;8808;52.478;13.378;2022-09-27T05:45:22;12.50;99.90
17381;DHT22;8808;52.478;13.378;2022-09-27T05:47:52;12.60;99.90
17381;DHT22;8808;52.478;13.378;2022-09-27T05:50:19;12.60;99.90
17381;DHT22;8808;52.478;13.378;2022-09-27T05:52:46;12.50;99.90
17381;DHT22;8808;52.478;13.378;2022-09-27T05:55:15;12.50;99.90
17381;DHT22;8808;52.478;13.378;2022-09-27T05:57:42;12.50;99.90
17381;DHT22;8808;52.478;13.378;2022-09-27T06:00:09;12.60;99.90
17381;DHT22;8808;52.478;13.378;2022-09-27T06:02:36;12.60;99.90
17381;DHT22;8808;52.478;13.378;2022-09-27T06:05:03;12.70;99.90
17381;DHT22;8808;52.478;13.378;2022-09-27T06:07:30;12.60;99.90
17381;DHT22;8808;52.478;13.378;2022-09-27T06:09:57;12.70;99.90
17381;DHT22;8808;52.478;13.378;2022-09-27T06:12:25;12.60;99.90
17381;DHT22;8808;52.478;13.378;2022-09-27T06:14:52;12.60;99.90
17381;DHT22;8808;52.478;13.378;2022-09-27T06:17:19;12.60;99.90
17381;DHT22;8808;52.478;13.378;2022-09-27T06:19:46;12.70;99.90
17381;DHT22;8808;52.478;13.378;2022-09-27T06:22:14;12.60;99.90
17381;DHT22;8808;52.478;13.378;2022-09-27T06:27:08;12.30;99.90
17381;DHT22;8808;52.478;13.378;2022-09-27T06:29:37;12.70;99.90
17381;DHT22;8808;52.478;13.378;2022-09-27T06:32:04;12.60;99.90
17381;DHT22;8808;52.478;13.378;2022-09-27T06:34:31;12.60;99.90
17381;DHT22;8808;52.478;13.378;2022-09-27T06:36:57;12.60;99.90
17381;DHT22;8808;52.478;13.378;2022-09-27T06:39:24;12.50;99.90
17381;DHT22;8808;52.478;13.378;2022-09-27T06:41:53;12.70;99.90
17381;DHT22;8808;52.478;13.378;2022-09-27T06:44:22;12.50;99.90
17381;DHT22;8808;52.478;13.378;2022-09-27T06:46:51;12.60;99.90
17381;DHT22;8808;52.478;13.378;2022-09-27T06:49:20;12.70;99.90
17381;DHT22;8808;52.478;13.378;2022-09-27T06:51:47;12.70;99.90
17381;DHT22;8808;52.478;13.378;2022-09-27T06:54:15;12.70;99.90
17381;DHT22;8808;52.478;13.378;2022-09-27T06:56:42;12.40;99.90
17381;DHT22;8808;52.478;13.378;2022-09-27T06:59:08;12.50;99.90
17381;DHT22;8808;52.478;13.378;2022-09-27T07:01:54;12.60;99.90
17381;DHT22;8808;52.478;13.378;2022-09-27T07:04:21;12.50;99.90
17381;DHT22;8808;52.478;13.378;2022-09-27T07:06:49;12.50;99.90
17381;DHT22;8808;52.478;13.378;2022-09-27T07:09:18;12.50;99.90
17381;DHT22;8808;52.478;13.378;2022-09-27T07:11:45;12.60;99.90
17381;DHT22;8808;52.478;13.378;2022-09-27T07:14:12;12.60;99.90
17381;DHT22;8808;52.478;13.378;2022-09-27T07:16:39;12.60;99.90
17381;DHT22;8808;52.478;13.378;2022-09-27T07:19:07;12.60;99.90
17381;DHT22;8808;52.478;13.378;2022-09-27T07:21:36;12.60;99.90
17381;DHT22;8808;52.478;13.378;2022-09-27T07:24:03;12.60;99.90
17381;DHT22;8808;52.478;13.378;2022-09-27T07:26:30;12.50;99.90
17381;DHT22;8808;52.478;13.378;2022-09-27T07:28:57;12.50;99.90
17381;DHT22;8808;52.478;13.378;2022-09-27T07:31:25;12.60;99.90
17381;DHT22;8808;52.478;13.378;2022-09-27T07:33:53;12.50;99.90
17381;DHT22;8808;52.478;13.378;2022-09-27T07:36:21;12.60;99.90
17381;DHT22;8808;52.478;13.378;2022-09-27T07:38:48;12.50;99.90
17381;DHT22;8808;52.478;13.378;2022-09-27T07:41:15;12.70;99.90
17381;DHT22;8808;52.478;13.378;2022-09-27T07:43:42;12.60;99.90
17381;DHT22;8808;52.478;13.378;2022-09-27T07:46:10;12.60;99.90
17381;DHT22;8808;52.478;13.378;2022-09-27T07:48:38;12.20;99.90
17381;DHT22;8808;52.478;13.378;2022-09-27T07:51:05;12.40;99.90
17381;DHT22;8808;52.478;13.378;2022-09-27T07:53:36;12.40;99.90
17381;DHT22;8808;52.478;13.378;2022-09-27T07:56:05;12.40;99.90
17381;DHT22;8808;52.478;13.378;2022-09-27T07:58:32;12.40;99.90
17381;DHT22;8808;52.478;13.378;2022-09-27T08:00:59;12.50;99.90
17381;DHT22;8808;52.478;13.378;2022-09-27T08:03:26;12.50;99.90
17381;DHT22;8808;52.478;13.378;2022-09-27T08:05:53;12.50;99.90
17381;DHT22;8808;52.478;13.378;2022-09-27T08:08:20;12.40;99.90
17381;DHT22;8808;52.478;13.378;2022-09-27T08:10:49;12.40;99.90
17381;DHT22;8808;52.478;13.378;2022-09-27T08:13:15;12.40;99.90
17381;DHT22;8808;52.478;13.378;2022-09-27T08:15:44;12.50;99.90
17381;DHT22;8808;52.478;13.378;2022-09-27T08:18:11;12.50;99.90
17381;DHT22;8808;52.478;13.378;2022-09-27T08:20:38;12.50;99.90
17381;DHT22;8808;52.478;13.378;2022-09-27T08:23:05;12.60;99.90
17381;DHT22;8808;52.478;13.378;2022-09-27T08:25:32;12.50;99.90
17381;DHT22;8808;52.478;13.378;2022-09-27T08:28:02;12.50;99.90
17381;DHT22;8808;52.478;13.378;2022-09-27T08:30:30;12.50;99.90
17381;DHT22;8808;52.478;13.378;2022-09-27T08:32:59;12.50;99.90
17381;DHT22;8808;52.478;13.378;2022-09-27T08:35:27;12.50;99.90
17381;DHT22;8808;52.478;13.378;2022-09-27T08:37:55;12.50;99.90
17381;DHT22;8808;52.478;13.378;2022-09-27T08:40:26;12.60;99.90
17381;DHT22;8808;52.478;13.378;2022-09-27T08:43:02;12.60;99.90
17381;DHT22;8808;52.478;13.378;2022-09-27T08:45:35;12.60;99.90
17381;DHT22;8808;52.478;13.378;2022-09-27T08:48:04;12.70;99.90
17381;DHT22;8808;52.478;13.378;2022-09-27T08:50:34;12.70;99.90
17381;DHT22;8808;52.478;13.378;2022-09-27T08:53:04;12.70;99.90
17381;DHT22;8808;52.478;13.378;2022-09-27T08:55:37;12.70;99.90
17381;DHT22;8808;52.478;13.378;2022-09-27T08:58:13;12.70;99.90
17381;DHT22;8808;52.478;13.378;2022-09-27T09:00:41;12.80;99.90
17381;DHT22;8808;52.478;13.378;2022-09-27T09:03:16;12.80;99.90
17381;DHT22;8808;52.478;13.378;2022-09-27T09:05:55;12.80;99.90
17381;DHT22;8808;52.478;13.378;2022-09-27T09:08:32;12.80;99.90
17381;DHT22;8808;52.478;13.378;2022-09-27T09:11:08;12.80;99.90
17381;DHT22;8808;52.478;13.378;2022-09-27T09:14:15;12.80;99.90
17381;DHT22;8808;52.478;13.378;2022-09-27T09:16:52;12.80;99.90
17381;DHT22;8808;52.478;13.378;2022-09-27T09:19:38;12.80;99.90
17381;DHT22;8808;52.478;13.378;2022-09-27T09:22:19;12.80;99.90
17381;DHT22;8808;52.478;13.378;2022-09-27T09:27:35;16.20;99.90
17381;DHT22;8808;52.478;13.378;2022-09-27T09:30:18;17.00;99.90
17381;DHT22;8808;52.478;13.378;2022-09-27T09:32:58;18.10;99.90
17381;DHT22;8808;52.478;13.378;2022-09-27T09:35:35;15.60;99.90
17381;DHT22;8808;52.478;13.378;2022-09-27T09:38:07;14.10;99.90
17381;DHT22;8808;52.478;13.378;2022-09-27T09:40:41;13.50;99.90
17381;DHT22;8808;52.478;13.378;2022-09-27T09:43:14;13.30;99.90
17381;DHT22;8808;52.478;13.378;2022-09-27T09:45:46;13.20;99.90
17381;DHT22;8808;52.478;13.378;2022-09-27T09:48:21;13.00;99.90
17381;DHT22;8808;52.478;13.378;2022-09-27T09:50:52;12.90;99.90
17381;DHT22;8808;52.478;13.378;2022-09-27T09:53:24;13.10;99.90
17381;DHT22;8808;52.478;13.378;2022-09-27T09:55:56;13.00;99.90
17381;DHT22;8808;52.478;13.378;2022-09-27T09:58:28;13.10;99.90
17381;DHT22;8808;52.478;13.378;2022-09-27T10:01:10;13.20;99.90
17381;DHT22;8808;52.478;13.378;2022-09-27T10:03:38;13.20;99.90
17381;DHT22;8808;52.478;13.378;2022-09-27T10:06:05;13.20;99.90
17381;DHT22;8808;52.478;13.378;2022-09-27T10:08:33;13.20;99.90
17381;DHT22;8808;52.478;13.378;2022-09-27T10:11:00;13.20;99.90
17381;DHT22;8808;52.478;13.378;2022-09-27T10:13:29;13.30;99.90
17381;DHT22;8808;52.478;13.378;2022-09-27T10:16:04;13.50;99.90
17381;DHT22;8808;52.478;13.378;2022-09-27T10:18:31;13.70;99.90
17381;DHT22;8808;52.478;13.378;2022-09-27T10:21:05;13.70;99.90
17381;DHT22;8808;52.478;13.378;2022-09-27T10:23:32;13.60;99.90
17381;DHT22;8808;52.478;13.378;2022-09-27T10:26:02;13.60;99.90
17381;DHT22;8808;52.478;13.378;2022-09-27T10:28:35;13.50;99.90
17381;DHT22;8808;52.478;13.378;2022-09-27T10:31:06;13.50;99.90
17381;DHT22;8808;52.478;13.378;2022-09-27T10:33:34;13.50;99.90
17381;DHT22;8808;52.478;13.378;2022-09-27T10:36:03;13.70;99.90
17381;DHT22;8808;52.478;13.378;2022-09-27T10:38:31;13.60;99.90
17381;DHT22;8808;52.478;13.378;2022-09-27T10:41:16;13.60;99.90
17381;DHT22;8808;52.478;13.378;2022-09-27T10:43:43;13.80;99.90
17381;DHT22;8808;52.478;13.378;2022-09-27T10:46:18;13.70;99.90
17381;DHT22;8808;52.478;13.378;2022-09-27T10:48:46;13.80;99.90
17381;DHT22;8808;52.478;13.378;2022-09-27T10:51:26;13.80;99.90
17381;DHT22;8808;52.478;13.378;2022-09-27T10:53:55;14.10;99.90
17381;DHT22;8808;52.478;13.378;2022-09-27T10:56:28;14.40;99.90
17381;DHT22;8808;52.478;13.378;2022-09-27T10:58:56;14.40;99.90
17381;DHT22;8808;52.478;13.378;2022-09-27T11:01:26;14.30;99.90
17381;DHT22;8808;52.478;13.378;2022-09-27T11:04:04;14.20;99.90
17381;DHT22;8808;52.478;13.378;2022-09-27T11:06:31;14.20;99.90
17381;DHT22;8808;52.478;13.378;2022-09-27T11:09:26;14.10;99.90
17381;DHT22;8808;52.478;13.378;2022-09-27T11:12:06;14.10;99.90
17381;DHT22;8808;52.478;13.378;2022-09-27T11:14:34;14.00;99.90
17381;DHT22;8808;52.478;13.378;2022-09-27T11:17:12;13.90;99.90
17381;DHT22;8808;52.478;13.378;2022-09-27T11:20:05;13.80;99.90
17381;DHT22;8808;52.478;13.378;2022-09-27T11:22:47;13.80;99.90
17381;DHT22;8808;52.478;13.378;2022-09-27T11:25:29;13.80;99.90
17381;DHT22;8808;52.478;13.378;2022-09-27T11:28:04;13.90;99.90
17381;DHT22;8808;52.478;13.378;2022-09-27T11:30:39;13.90;99.90
17381;DHT22;8808;52.478;13.378;2022-09-27T11:33:27;13.90;99.90
17381;DHT22;8808;52.478;13.378;2022-09-27T11:36:04;14.00;99.90
17381;DHT22;8808;52.478;13.378;2022-09-27T11:38:37;13.90;99.90
17381;DHT22;8808;52.478;13.378;2022-09-27T11:41:23;13.90;99.90
17381;DHT22;8808;52.478;13.378;2022-09-27T11:44:19;13.80;99.90
17381;DHT22;8808;52.478;13.378;2022-09-27T11:46:54;13.60;99.90
17381;DHT22;8808;52.478;13.378;2022-09-27T11:49:39;13.60;99.90
17381;DHT22;8808;52.478;13.378;2022-09-27T11:52:21;13.20;99.90
17381;DHT22;8808;52.478;13.378;2022-09-27T11:55:14;12.60;99.90
17381;DHT22;8808;52.478;13.378;2022-09-27T11:57:47;12.40;99.90
17381;DHT22;8808;52.478;13.378;2022-09-27T12:00:19;12.30;99.90
17381;DHT22;8808;52.478;13.378;2022-09-27T12:06:02;12.10;99.90
17381;DHT22;8808;52.478;13.378;2022-09-27T12:08:42;12.10;99.90
17381;DHT22;8808;52.478;13.378;2022-09-27T12:11:17;12.00;99.90
17381;DHT22;8808;52.478;13.378;2022-09-27T12:13:48;12.10;99.90
17381;DHT22;8808;52.478;13.378;2022-09-27T12:16:18;12.10;99.90
17381;DHT22;8808;52.478;13.378;2022-09-27T12:18:46;12.10;99.90
17381;DHT22;8808;52.478;13.378;2022-09-27T12:21:16;12.10;99.90
17381;DHT22;8808;52.478;13.378;2022-09-27T12:23:45;12.20;99.90
17381;DHT22;8808;52.478;13.378;2022-09-27T12:26:16;12.20;99.90
17381;DHT22;8808;52.478;13.378;2022-09-27T12:28:48;12.30;99.90
17381;DHT22;8808;52.478;13.378;2022-09-27T12:31:20;12.40;99.90
17381;DHT22;8808;52.478;13.378;2022-09-27T12:33:56;12.40;99.90
17381;DHT22;8808;52.478;13.378;2022-09-27T12:36:31;12.60;99.90
17381;DHT22;8808;52.478;13.378;2022-09-27T12:39:03;12.60;99.90
17381;DHT22;8808;52.478;13.378;2022-09-27T12:41:38;12.80;99.90
17381;DHT22;8808;52.478;13.378;2022-09-27T12:44:09;12.90;99.90
17381;DHT22;8808;52.478;13.378;2022-09-27T12:46:47;12.90;99.90
17381;DHT22;8808;52.478;13.378;2022-09-27T12:49:25;12.90;99.90
17381;DHT22;8808;52.478;13.378;2022-09-27T12:51:58;13.00;99.90
17381;DHT22;8808;52.478;13.378;2022-09-27T12:54:54;13.10;99.90
17381;DHT22;8808;52.478;13.378;2022-09-27T12:57:33;13.10;99.90
17381;DHT22;8808;52.478;13.378;2022-09-27T13:00:09;13.10;99.90
17381;DHT22;8808;52.478;13.378;2022-09-27T13:03:07;13.00;99.90
17381;DHT22;8808;52.478;13.378;2022-09-27T13:08:48;13.10;99.90
17381;DHT22;8808;52.478;13.378;2022-09-27T13:11:22;13.20;99.90
17381;DHT22;8808;52.478;13.378;2022-09-27T13:13:54;13.10;99.90
17381;DHT22;8808;52.478;13.378;2022-09-27T13:16:21;13.00;99.90
17381;DHT22;8808;52.478;13.378;2022-09-27T13:18:53;12.90;99.90
17381;DHT22;8808;52.478;13.378;2022-09-27T13:24:46;12.80;99.90
17381;DHT22;8808;52.478;13.378;2022-09-27T13:27:35;12.90;99.90
17381;DHT22;8808;52.478;13.378;2022-09-27T13:33:46;13.10;99.90
17381;DHT22;8808;52.478;13.378;2022-09-27T13:36:24;13.20;99.90
17381;DHT22;8808;52.478;13.378;2022-09-27T13:45:15;13.20;99.90
17381;DHT22;8808;52.478;13.378;2022-09-27T13:47:49;13.20;99.90
17381;DHT22;8808;52.478;13.378;2022-09-27T13:50:23;13.20;99.90
17381;DHT22;8808;52.478;13.378;2022-09-27T13:52:58;13.30;99.90
17381;DHT22;8808;52.478;13.378;2022-09-27T13:55:39;13.30;99.90
17381;DHT22;8808;52.478;13.378;2022-09-27T13:58:14;13.20;99.90
17381;DHT22;8808;52.478;13.378;2022-09-27T14:00:46;13.30;99.90
17381;DHT22;8808;52.478;13.378;2022-09-27T14:03:29;13.20;99.90
17381;DHT22;8808;52.478;13.378;2022-09-27T14:06:14;13.10;99.90
17381;DHT22;8808;52.478;13.378;2022-09-27T14:08:47;13.10;99.90
17381;DHT22;8808;52.478;13.378;2022-09-27T14:11:19;13.00;99.90
17381;DHT22;8808;52.478;13.378;2022-09-27T14:13:48;13.10;99.90
17381;DHT22;8808;52.478;13.378;2022-09-27T14:16:17;13.20;99.90
17381;DHT22;8808;52.478;13.378;2022-09-27T14:18:47;13.10;99.90
17381;DHT22;8808;52.478;13.378;2022-09-27T14:21:26;13.10;99.90
17381;DHT22;8808;52.478;13.378;2022-09-27T14:24:21;13.10;99.90
17381;DHT22;8808;52.478;13.378;2022-09-27T14:26:49;13.10;99.90
17381;DHT22;8808;52.478;13.378;2022-09-27T14:29:17;13.10;99.90
17381;DHT22;8808;52.478;13.378;2022-09-27T14:31:45;13.10;99.90
17381;DHT22;8808;52.478;13.378;2022-09-27T14:34:14;13.10;99.90
17381;DHT22;8808;52.478;13.378;2022-09-27T14:36:43;13.00;99.90
17381;DHT22;8808;52.478;13.378;2022-09-27T14:39:29;13.00;99.90
17381;DHT22;8808;52.478;13.378;2022-09-27T14:41:57;13.00;99.90
17381;DHT22;8808;52.478;13.378;2022-09-27T14:44:24;13.00;99.90
17381;DHT22;8808;52.478;13.378;2022-09-27T14:49:49;13.00;99.90
17381;DHT22;8808;52.478;13.378;2022-09-27T14:52:18;12.90;99.90
17381;DHT22;8808;52.478;13.378;2022-09-27T14:54:58;12.90;99.90
17381;DHT22;8808;52.478;13.378;2022-09-27T14:57:26;12.90;99.90
17381;DHT22;8808;52.478;13.378;2022-09-27T14:59:54;12.90;99.90
17381;DHT22;8808;52.478;13.378;2022-09-27T15:02:24;12.80;99.90
17381;DHT22;8808;52.478;13.378;2022-09-27T15:04:54;12.80;99.90
17381;DHT22;8808;52.478;13.378;2022-09-27T15:07:21;12.80;99.90
17381;DHT22;8808;52.478;13.378;2022-09-27T15:09:48;12.80;99.90
17381;DHT22;8808;52.478;13.378;2022-09-27T15:12:22;12.90;99.90
17381;DHT22;8808;52.478;13.378;2022-09-27T15:14:50;12.70;99.90
17381;DHT22;8808;52.478;13.378;2022-09-27T15:17:20;12.80;99.90
17381;DHT22;8808;52.478;13.378;2022-09-27T15:19:59;12.80;99.90
17381;DHT22;8808;52.478;13.378;2022-09-27T15:22:35;12.80;99.90
17381;DHT22;8808;52.478;13.378;2022-09-27T15:25:15;12.80;99.90
17381;DHT22;8808;52.478;13.378;2022-09-27T15:27:47;12.80;99.90
17381;DHT22;8808;52.478;13.378;2022-09-27T15:30:17;12.80;99.90
17381;DHT22;8808;52.478;13.378;2022-09-27T15:32:48;12.80;99.90
17381;DHT22;8808;52.478;13.378;2022-09-27T15:35:21;12.80;99.90
17381;DHT22;8808;52.478;13.378;2022-09-27T15:37:49;12.70;99.90
17381;DHT22;8808;52.478;13.378;2022-09-27T15:40:56;12.80;99.90
17381;DHT22;8808;52.478;13.378;2022-09-27T15:43:27;12.90;99.90
17381;DHT22;8808;52.478;13.378;2022-09-27T15:45:56;12.80;99.90
17381;DHT22;8808;52.478;13.378;2022-09-27T15:48:25;12.70;99.90
17381;DHT22;8808;52.478;13.378;2022-09-27T15:50:54;12.70;99.90
17381;DHT22;8808;52.478;13.378;2022-09-27T15:53:41;12.70;99.90
17381;DHT22;8808;52.478;13.378;2022-09-27T15:56:12;12.60;99.90
17381;DHT22;8808;52.478;13.378;2022-09-27T15:58:40;12.70;99.90
17381;DHT22;8808;52.478;13.378;2022-09-27T16:01:17;12.60;99.90
17381;DHT22;8808;52.478;13.378;2022-09-27T16:03:46;12.50;99.90
17381;DHT22;8808;52.478;13.378;2022-09-27T16:06:14;12.40;99.90
17381;DHT22;8808;52.478;13.378;2022-09-27T16:08:41;12.40;99.90
17381;DHT22;8808;52.478;13.378;2022-09-27T16:11:13;12.40;99.90
17381;DHT22;8808;52.478;13.378;2022-09-27T16:13:40;12.20;99.90
17381;DHT22;8808;52.478;13.378;2022-09-27T16:16:13;12.10;99.90
17381;DHT22;8808;52.478;13.378;2022-09-27T16:18:41;12.10;99.90
17381;DHT22;8808;52.478;13.378;2022-09-27T16:21:07;12.00;99.90
17381;DHT22;8808;52.478;13.378;2022-09-27T16:23:36;11.90;99.90
17381;DHT22;8808;52.478;13.378;2022-09-27T16:26:03;11.90;99.90
17381;DHT22;8808;52.478;13.378;2022-09-27T16:28:30;11.90;99.90
17381;DHT22;8808;52.478;13.378;2022-09-27T16:31:00;11.90;99.90